Time;durP1;ratioP1;P1;durP2;ratioP2;P2;SDS_P1;SDS_P2;PMS_P1;PMS_P2;Temp;Humidity;BMP_temperature;BMP_pressure;BME280_temperature;BME280_humidity;BME280_pressure;Samples;Min_cycle;Max_cycle;Signal;HPM_P1;HPM_P2
2024/01/21 16:45:38;;;;;;;23.10;11.73;;;2.10;1.00;;;;;;5064717;28;20636;-73
2024/01/21 16:48:04;;;;;;;22.70;11.70;;;3.00;1.00;;;;;;5073568;28;20912;-75
2024/01/21 16:50:30;;;;;;;22.88;11.60;;;3.10;1.00;;;;;;5063972;28;20778;-79
2024/01/21 16:53:01;;;;;;;23.17;13.83;;;3.00;1.00;;;;;;5056295;28;20173;-77
2024/01/21 16:55:26;;;;;;;21.93;13.37;;;3.30;1.00;;;;;;5060244;28;20455;-76
2024/01/21 16:57:52;;;;;;;23.90;13.53;;;3.00;1.00;;;;;;5057593;28;20429;-76
2024/01/21 17:00:22;;;;;;;21.10;12.67;;;3.00;1.00;;;;;;5059181;28;20659;-81
2024/01/21 17:02:52;;;;;;;23.70;14.10;;;3.40;1.00;;;;;;5065610;28;20180;-81
2024/01/21 17:05:17;;;;;;;27.20;14.50;;;3.10;1.00;;;;;;5063506;28;20474;-76
2024/01/21 17:07:44;;;;;;;24.60;15.03;;;3.10;1.00;;;;;;5058731;28;20436;-76
2024/01/21 17:10:28;;;;;;;25.73;14.93;;;3.10;1.00;;;;;;5056387;28;20227;-77
2024/01/21 17:12:56;;;;;;;27.07;16.00;;;3.20;1.00;;;;;;5051400;28;20763;-81
2024/01/21 17:15:22;;;;;;;26.83;14.47;;;3.40;1.00;;;;;;5052665;28;20487;-77
2024/01/21 17:17:51;;;;;;;22.47;13.83;;;3.60;1.00;;;;;;5058724;28;20433;-79
2024/01/21 17:20:17;;;;;;;20.97;12.93;;;3.20;1.00;;;;;;5057833;28;20444;-77
2024/01/21 17:22:42;;;;;;;17.93;12.30;;;3.30;1.00;;;;;;5053989;28;20500;-82
2024/01/21 17:25:09;;;;;;;19.67;12.17;;;3.30;1.00;;;;;;5056412;28;20279;-77
2024/01/21 17:27:34;;;;;;;19.70;12.33;;;3.20;1.00;;;;;;5060470;28;20268;-76
2024/01/21 17:30:00;;;;;;;22.10;12.60;;;3.20;1.00;;;;;;5058706;28;20780;-78
2024/01/21 17:32:26;;;;;;;21.53;12.70;;;3.30;1.00;;;;;;5057497;28;20185;-77
2024/01/21 17:34:51;;;;;;;23.53;10.90;;;3.40;1.00;;;;;;5044532;28;20227;-77
2024/01/21 17:37:17;;;;;;;17.40;9.90;;;3.30;1.00;;;;;;5046348;28;20196;-79
2024/01/21 17:39:43;;;;;;;13.90;9.23;;;3.70;1.00;;;;;;5059268;28;20208;-77
2024/01/21 17:42:08;;;;;;;18.93;11.10;;;3.50;1.00;;;;;;5048609;28;20192;-76
2024/01/21 17:44:34;;;;;;;17.43;10.00;;;3.50;1.00;;;;;;5051025;28;20279;-76
2024/01/21 17:47:00;;;;;;;15.50;9.83;;;3.50;1.00;;;;;;5051423;28;20548;-77
2024/01/21 17:49:26;;;;;;;17.30;10.60;;;3.60;1.00;;;;;;5051397;28;20509;-77
2024/01/21 17:51:52;;;;;;;19.20;12.23;;;3.60;1.00;;;;;;5055252;28;20789;-80
2024/01/21 17:54:17;;;;;;;18.10;10.80;;;4.00;1.00;;;;;;5046324;28;20612;-80
2024/01/21 17:56:43;;;;;;;23.13;11.20;;;3.60;1.00;;;;;;5049842;28;20659;-76
2024/01/21 17:59:08;;;;;;;19.73;9.57;;;3.60;1.00;;;;;;5051204;28;20192;-80
2024/01/21 18:01:34;;;;;;;16.17;10.07;;;3.60;1.00;;;;;;5046223;28;20196;-78
2024/01/21 18:04:00;;;;;;;16.50;9.97;;;3.90;1.00;;;;;;5049747;28;20213;-79
2024/01/21 18:06:29;;;;;;;16.67;9.27;;;4.10;1.00;;;;;;5042662;28;20791;-77
2024/01/21 18:08:56;;;;;;;22.57;11.33;;;4.00;1.00;;;;;;5048026;28;20177;-78
2024/01/21 18:11:21;;;;;;;21.00;10.93;;;3.70;1.00;;;;;;5045680;28;20431;-75
2024/01/21 18:13:47;;;;;;;20.17;11.00;;;3.70;1.00;;;;;;5038780;28;20451;-77
2024/01/21 18:16:13;;;;;;;18.50;10.70;;;3.70;1.00;;;;;;5043578;28;20197;-80
2024/01/21 18:18:38;;;;;;;15.90;9.67;;;3.80;1.00;;;;;;5045752;28;20189;-77
2024/01/21 18:21:04;;;;;;;13.37;9.27;;;3.80;1.00;;;;;;5042557;28;20216;-75
2024/01/21 18:23:31;;;;;;;15.70;9.00;;;3.90;1.00;;;;;;5049373;28;20192;-76
2024/01/21 18:25:56;;;;;;;13.97;8.97;;;3.90;1.00;;;;;;5036929;28;20182;-76
2024/01/21 18:28:22;;;;;;;17.60;9.10;;;3.90;1.00;;;;;;5045977;28;20428;-77
2024/01/21 18:30:47;;;;;;;14.73;8.63;;;3.90;1.00;;;;;;5051218;28;20682;-78
2024/01/21 18:33:13;;;;;;;14.40;8.53;;;4.00;1.00;;;;;;5048695;28;20637;-75
2024/01/21 18:35:38;;;;;;;14.03;9.00;;;4.10;1.00;;;;;;5049756;28;20184;-76
2024/01/21 18:38:04;;;;;;;15.57;8.57;;;4.10;1.00;;;;;;5041574;28;20536;-76
2024/01/21 18:40:30;;;;;;;11.30;7.50;;;4.10;1.00;;;;;;5047244;28;20263;-79
2024/01/21 18:42:55;;;;;;;12.77;8.50;;;4.50;1.00;;;;;;5047802;28;20180;-77
2024/01/21 18:45:21;;;;;;;15.93;8.30;;;4.60;1.00;;;;;;5050394;28;20236;-75
2024/01/21 18:47:46;;;;;;;17.63;8.73;;;4.10;1.00;;;;;;5041351;28;20236;-76
2024/01/21 18:50:12;;;;;;;15.00;8.80;;;4.10;1.00;;;;;;5039515;28;20213;-75
2024/01/21 18:52:37;;;;;;;13.83;8.80;;;4.10;1.00;;;;;;5035168;28;20217;-75
2024/01/21 18:55:03;;;;;;;18.73;9.10;;;4.10;1.00;;;;;;5042765;28;20648;-75
2024/01/21 18:57:29;;;;;;;16.00;8.70;;;4.10;1.00;;;;;;5040586;28;20726;-75
2024/01/21 18:59:54;;;;;;;14.53;8.53;;;4.20;1.00;;;;;;5040256;28;20201;-79
2024/01/21 19:02:20;;;;;;;21.17;9.13;;;4.20;1.00;;;;;;5031065;28;20208;-77
2024/01/21 19:04:45;;;;;;;16.03;8.83;;;4.30;1.00;;;;;;5039993;28;20687;-76
2024/01/21 19:07:12;;;;;;;17.90;9.23;;;4.30;1.00;;;;;;5030485;28;20189;-78
2024/01/21 19:09:39;;;;;;;11.70;7.10;;;4.30;1.00;;;;;;5030057;28;20256;-76
2024/01/21 19:12:05;;;;;;;12.83;8.00;;;4.30;1.00;;;;;;5031635;28;20421;-79
2024/01/21 19:14:31;;;;;;;14.57;7.83;;;4.40;1.00;;;;;;5039865;28;20419;-76
2024/01/21 19:16:57;;;;;;;15.03;7.97;;;4.40;1.00;;;;;;5050493;28;20597;-77
2024/01/21 19:19:22;;;;;;;13.93;7.90;;;4.60;1.00;;;;;;5037488;28;20205;-78
2024/01/21 19:21:48;;;;;;;13.00;8.30;;;4.70;1.00;;;;;;5031714;28;20204;-77
2024/01/21 19:24:14;;;;;;;20.23;10.50;;;4.50;1.00;;;;;;5040370;28;20205;-76
2024/01/21 19:26:40;;;;;;;18.70;10.30;;;4.50;1.00;;;;;;5042355;28;20190;-79
2024/01/21 19:29:07;;;;;;;20.53;9.70;;;4.50;1.00;;;;;;5036955;28;20518;-78
2024/01/21 19:31:35;;;;;;;14.67;7.77;;;4.60;1.00;;;;;;5035346;28;20428;-78
2024/01/21 19:34:01;;;;;;;13.60;8.10;;;4.50;1.00;;;;;;5048113;28;20489;-76
2024/01/21 19:36:27;;;;;;;12.17;8.20;;;4.50;1.00;;;;;;5040033;28;20424;-74
2024/01/21 19:38:53;;;;;;;15.20;9.00;;;4.60;1.00;;;;;;5043117;28;20273;-77
2024/01/21 19:41:20;;;;;;;17.67;7.87;;;4.90;1.00;;;;;;5031649;28;20236;-77
2024/01/21 19:43:47;;;;;;;13.63;8.70;;;4.50;1.00;;;;;;5047945;28;20557;-76
2024/01/21 19:46:14;;;;;;;11.90;8.03;;;3.80;1.00;;;;;;5038597;28;20420;-76
2024/01/21 19:48:40;;;;;;;12.30;8.20;;;4.50;1.00;;;;;;5038056;28;20493;-76
2024/01/21 19:51:06;;;;;;;16.43;9.23;;;4.60;1.00;;;;;;5040015;28;20953;-77
2024/01/21 19:53:32;;;;;;;11.40;8.33;;;4.60;1.00;;;;;;5035931;28;20185;-76
2024/01/21 19:55:57;;;;;;;18.10;10.10;;;5.00;1.00;;;;;;5030829;28;20452;-77
2024/01/21 19:58:23;;;;;;;13.53;8.77;;;4.60;1.00;;;;;;5033288;28;20200;-76
2024/01/21 20:00:49;;;;;;;17.40;7.60;;;4.80;1.00;;;;;;5039632;28;20228;-82
2024/01/21 20:03:14;;;;;;;15.83;7.03;;;5.20;1.00;;;;;;5048518;28;20268;-76
2024/01/21 20:05:40;;;;;;;12.10;6.50;;;4.70;1.00;;;;;;5036801;28;20347;-79
2024/01/21 20:08:05;;;;;;;9.40;6.23;;;4.70;1.00;;;;;;5032167;28;20239;-76
2024/01/21 20:10:31;;;;;;;9.13;6.10;;;4.70;1.00;;;;;;5042579;28;20216;-74
2024/01/21 20:12:56;;;;;;;11.50;5.90;;;4.70;1.00;;;;;;5036702;28;20182;-76
2024/01/21 20:15:22;;;;;;;11.27;6.63;;;4.70;1.00;;;;;;5034700;28;20268;-77
2024/01/21 20:17:47;;;;;;;13.93;8.03;;;4.80;1.00;;;;;;5042283;28;20185;-74
2024/01/21 20:20:13;;;;;;;11.20;6.23;;;5.10;1.00;;;;;;5041539;28;20213;-78
2024/01/21 20:22:38;;;;;;;10.37;6.23;;;4.80;1.00;;;;;;5038554;28;20196;-76
2024/01/21 20:25:04;;;;;;;12.83;6.87;;;4.80;1.00;;;;;;5041078;28;20212;-77
2024/01/21 20:27:30;;;;;;;11.13;6.80;;;4.80;1.00;;;;;;5044236;28;20189;-76
2024/01/21 20:29:58;;;;;;;20.60;6.33;;;5.00;1.00;;;;;;5046383;28;20236;-76
2024/01/21 20:32:24;;;;;;;12.70;7.13;;;4.90;1.00;;;;;;5030888;28;20211;-76
2024/01/21 20:34:50;;;;;;;11.43;6.90;;;4.90;1.00;;;;;;5046577;28;20423;-78
2024/01/21 20:37:16;;;;;;;10.20;6.70;;;4.90;1.00;;;;;;5040417;28;20204;-76
2024/01/21 20:39:41;;;;;;;12.27;6.70;;;4.90;1.00;;;;;;5039825;28;20938;-80
2024/01/21 20:42:11;;;;;;;12.50;6.30;;;4.90;1.00;;;;;;5039927;28;20189;-78
2024/01/21 20:44:37;;;;;;;10.43;6.33;;;4.90;1.00;;;;;;5031294;28;20205;-76
2024/01/21 20:47:03;;;;;;;12.37;5.80;;;5.00;1.00;;;;;;5031441;28;20917;-77
2024/01/21 20:49:28;;;;;;;14.33;6.50;;;5.10;1.00;;;;;;5030733;28;20220;-76
2024/01/21 20:51:54;;;;;;;11.93;7.10;;;5.10;1.00;;;;;;5030648;28;20186;-77
2024/01/21 20:54:20;;;;;;;17.80;8.90;;;5.10;1.00;;;;;;5045530;28;20193;-76
2024/01/21 20:56:46;;;;;;;13.83;7.93;;;5.10;1.00;;;;;;5042116;28;20191;-76
2024/01/21 20:59:11;;;;;;;12.10;6.70;;;5.10;1.00;;;;;;5039031;28;20764;-75
2024/01/21 21:01:37;;;;;;;11.67;6.83;;;5.50;1.00;;;;;;5029125;28;20193;-77
2024/01/21 21:04:02;;;;;;;8.70;6.00;;;5.10;1.00;;;;;;5036172;28;20641;-78
2024/01/21 21:06:28;;;;;;;13.63;5.60;;;5.10;1.00;;;;;;5033532;28;20280;-76
2024/01/21 21:08:53;;;;;;;13.27;6.37;;;5.10;1.00;;;;;;5045803;28;20590;-76
2024/01/21 21:11:19;;;;;;;13.13;6.60;;;5.10;1.00;;;;;;5036955;28;20209;-77
2024/01/21 21:13:45;;;;;;;11.60;7.17;;;5.30;1.00;;;;;;5036373;28;20189;-80
2024/01/21 21:16:12;;;;;;;10.10;6.60;;;5.10;1.00;;;;;;5046429;28;20193;-78
2024/01/21 21:18:38;;;;;;;9.83;5.90;;;5.10;1.00;;;;;;5042215;28;20194;-76
2024/01/21 21:21:03;;;;;;;11.37;6.10;;;5.00;1.00;;;;;;5029901;28;20445;-78
2024/01/21 21:23:29;;;;;;;12.20;6.30;;;4.80;1.00;;;;;;5030468;28;20690;-79
2024/01/21 21:25:55;;;;;;;12.10;6.00;;;4.70;1.00;;;;;;5039188;28;20259;-82
2024/01/21 21:28:21;;;;;;;13.47;4.87;;;4.60;1.00;;;;;;5029837;28;20459;-76
2024/01/21 21:30:46;;;;;;;8.83;5.33;;;4.50;1.00;;;;;;5029406;28;20703;-73
2024/01/21 21:33:12;;;;;;;8.80;5.10;;;4.50;1.00;;;;;;5036002;28;20560;-80
2024/01/21 21:35:39;;;;;;;7.90;5.23;;;4.50;1.00;;;;;;5035227;28;20181;-77
2024/01/21 21:38:05;;;;;;;8.40;5.33;;;4.50;1.00;;;;;;5041108;28;20181;-79
2024/01/21 21:40:30;;;;;;;14.80;6.30;;;4.40;1.00;;;;;;5047187;28;20450;-79
2024/01/21 21:42:56;;;;;;;11.77;6.40;;;4.30;1.00;;;;;;5039946;28;20463;-77
2024/01/21 21:45:22;;;;;;;14.57;5.73;;;4.30;1.00;;;;;;5041058;28;20241;-77
2024/01/21 21:47:48;;;;;;;9.60;5.30;;;4.60;1.00;;;;;;5032987;28;20186;-76
2024/01/21 21:50:14;;;;;;;10.20;5.60;;;4.30;1.00;;;;;;5049454;28;20455;-78
2024/01/21 21:52:40;;;;;;;9.57;5.50;;;4.30;1.00;;;;;;5044355;28;20423;-76
2024/01/21 21:55:06;;;;;;;9.20;5.30;;;4.30;1.00;;;;;;5042407;28;20188;-74
2024/01/21 21:57:31;;;;;;;8.40;5.43;;;4.30;1.00;;;;;;5044302;28;20275;-77
2024/01/21 21:59:57;;;;;;;9.10;5.53;;;4.40;1.00;;;;;;5044302;28;20240;-79
2024/01/21 22:02:23;;;;;;;9.23;5.67;;;4.80;1.00;;;;;;5035661;28;20722;-78
2024/01/21 22:04:49;;;;;;;10.33;5.77;;;4.30;1.00;;;;;;5038022;28;20638;-77
2024/01/21 22:07:14;;;;;;;8.53;5.90;;;4.30;1.00;;;;;;5040347;28;20208;-76
2024/01/21 22:09:40;;;;;;;14.33;5.87;;;4.40;1.00;;;;;;5038012;28;20687;-77
2024/01/21 22:12:08;;;;;;;9.90;5.63;;;4.20;1.00;;;;;;5043530;28;20264;-79
2024/01/21 22:14:35;;;;;;;10.67;5.73;;;4.10;1.00;;;;;;5033002;28;20613;-80
2024/01/21 22:17:01;;;;;;;11.47;6.20;;;4.40;1.00;;;;;;5040166;28;20943;-78
2024/01/21 22:19:27;;;;;;;13.40;6.27;;;4.10;1.00;;;;;;5042866;28;20437;-76
2024/01/21 22:21:52;;;;;;;9.60;6.03;;;4.10;1.00;;;;;;5042910;28;20200;-77
2024/01/21 22:24:18;;;;;;;8.70;5.30;;;4.00;1.00;;;;;;5042592;28;20211;-79
2024/01/21 22:26:44;;;;;;;10.40;5.70;;;4.10;1.00;;;;;;5044780;28;20571;-79
2024/01/21 22:29:10;;;;;;;12.47;5.27;;;4.00;1.00;;;;;;5051333;28;20173;-79
2024/01/21 22:31:36;;;;;;;12.13;6.87;;;4.00;1.00;;;;;;5044646;28;20968;-76
2024/01/21 22:34:05;;;;;;;11.73;6.50;;;4.30;1.00;;;;;;5047091;28;20182;-84
2024/01/21 22:36:31;;;;;;;9.20;6.23;;;3.90;1.00;;;;;;5040677;28;20464;-78
2024/01/21 22:38:56;;;;;;;12.97;6.87;;;3.60;1.00;;;;;;5040304;28;20463;-76
2024/01/21 22:41:22;;;;;;;10.13;6.60;;;3.50;1.00;;;;;;5041007;28;20209;-76
2024/01/21 22:43:47;;;;;;;11.33;6.60;;;3.60;1.00;;;;;;5035860;28;20623;-77
2024/01/21 22:46:14;;;;;;;16.30;6.53;;;3.60;1.00;;;;;;5047717;28;20207;-76
2024/01/21 22:48:39;;;;;;;9.97;5.77;;;4.00;1.00;;;;;;5039119;28;20254;-78
2024/01/21 22:51:05;;;;;;;13.13;6.40;;;3.70;1.00;;;;;;5030479;28;20583;-75
2024/01/21 22:53:31;;;;;;;10.63;6.43;;;4.20;1.00;;;;;;5042384;28;20303;-76
2024/01/21 22:55:56;;;;;;;14.13;6.77;;;4.20;1.00;;;;;;5042396;28;20234;-76
2024/01/21 22:58:25;;;;;;;9.80;6.13;;;4.10;1.00;;;;;;5033292;28;20276;-79
2024/01/21 23:00:51;;;;;;;15.37;7.13;;;3.90;1.00;;;;;;5040528;28;20208;-76
2024/01/21 23:03:16;;;;;;;15.60;8.30;;;4.30;1.00;;;;;;5031438;28;20428;-77
2024/01/21 23:05:42;;;;;;;10.30;6.17;;;3.70;1.00;;;;;;5035221;28;20687;-77
2024/01/21 23:08:08;;;;;;;10.10;6.33;;;3.70;1.00;;;;;;5036755;28;20272;-76
2024/01/21 23:10:33;;;;;;;10.17;6.50;;;3.80;1.00;;;;;;5031494;28;20364;-77
2024/01/21 23:12:59;;;;;;;12.57;6.27;;;3.80;1.00;;;;;;5031697;28;20252;-78
2024/01/21 23:15:25;;;;;;;12.77;6.40;;;4.10;1.00;;;;;;5041394;28;20182;-78
2024/01/21 23:17:50;;;;;;;8.60;5.23;;;4.30;1.00;;;;;;5041744;28;20264;-76
2024/01/21 23:20:16;;;;;;;10.53;6.47;;;3.90;1.00;;;;;;5042394;28;20635;-76
2024/01/21 23:22:42;;;;;;;16.07;7.27;;;4.40;1.00;;;;;;5038055;28;20227;-77
2024/01/21 23:25:08;;;;;;;14.20;7.50;;;4.00;1.00;;;;;;5034908;28;20706;-75
2024/01/21 23:27:34;;;;;;;11.63;7.20;;;4.00;1.00;;;;;;5039417;28;20181;-77
2024/01/21 23:30:00;;;;;;;12.03;7.30;;;4.00;1.00;;;;;;5030993;28;20220;-76
2024/01/21 23:32:26;;;;;;;13.67;7.10;;;4.00;1.00;;;;;;5039044;28;20415;-77
2024/01/21 23:34:51;;;;;;;11.50;7.00;;;4.10;1.00;;;;;;5031211;28;20185;-79
2024/01/21 23:37:17;;;;;;;10.03;6.40;;;3.90;1.00;;;;;;5039554;28;20627;-76
2024/01/21 23:39:42;;;;;;;12.70;5.27;;;4.00;1.00;;;;;;5038079;28;20251;-78
2024/01/21 23:42:08;;;;;;;8.60;5.30;;;4.20;1.00;;;;;;5030510;28;20652;-80
2024/01/21 23:44:33;;;;;;;9.60;4.83;;;4.20;1.00;;;;;;5033778;28;20212;-76
2024/01/21 23:46:59;;;;;;;5.53;4.20;;;4.40;1.00;;;;;;5041274;28;20324;-76
2024/01/21 23:49:24;;;;;;;10.30;6.60;;;4.60;1.00;;;;;;5030460;28;20198;-77
2024/01/21 23:51:50;;;;;;;13.40;6.63;;;4.90;1.00;;;;;;5039237;28;20188;-76
2024/01/21 23:54:15;;;;;;;11.80;5.20;;;;;;;;;;5030498;28;20223;-76
2024/01/21 23:56:45;;;;;;;11.70;5.60;;;4.80;1.00;;;;;;5031291;28;20225;-77
2024/01/21 23:59:12;;;;;;;8.17;4.90;;;4.70;1.00;;;;;;5039280;28;20961;-76
